Mee Memorial Hospital (09CA)
King City, CA
Field Elevation: 334
Lat: 36°12.33N  Long: 121°07.95W
CTAF/Unicom Freq: 120.8000
   
     For Weather-by-Phone, call 831-386-7456
Weather Advisories
2018-08-17   00:23 Z
Altimeter 29.96" Hg
Wind 350° @ 15 KT
Gusts 24 KT
Visibility 7 SM
Ceiling CLR
Temperature 24° C (75° F)
Dewpoint 13° C (55° F)
Relative Humidity 49%
Density Altitude 1,400 feet
Condensation Altitude 6,200 feet
Wind and Runways
Indicated Runway = 27
Headwind = 3 kt
Crosswind = 15 kt
History
 
 
 
More Info
NOAA Forecast
 
 
About Us
Belfort Instrument
 
 
FAA Disclaimer: The data displayed is for advisory purposes only and is not to be used for flight planning or operations. For official data, please call 831-386-7456 to hear the current automated AWOS voice message.
  METAR 09CA 170023Z AUTO 35015G24KT 7 SM CLR 24/13 A2996